createdAt,value
2024-02-21T00:00:39.340Z,8.43
2024-02-21T00:03:05.867Z,9.48
2024-02-21T00:05:32.521Z,8.63
2024-02-21T00:08:01.139Z,9.15
2024-02-21T00:10:27.678Z,8.55
2024-02-21T00:12:54.122Z,8.43
2024-02-21T00:15:20.599Z,8.07
2024-02-21T00:17:47.052Z,8.57
2024-02-21T00:20:13.702Z,7.93
2024-02-21T00:22:40.142Z,7.45
2024-02-21T00:25:07.225Z,8.07
2024-02-21T00:27:33.724Z,8.90
2024-02-21T00:30:00.305Z,7.43
2024-02-21T00:32:26.889Z,11.13
2024-02-21T00:34:53.417Z,8.02
2024-02-21T00:37:19.894Z,6.97
2024-02-21T00:39:46.372Z,6.25
2024-02-21T00:42:12.874Z,6.97
2024-02-21T00:44:39.365Z,6.65
2024-02-21T00:47:05.949Z,7.10
2024-02-21T00:49:32.444Z,5.85
2024-02-21T00:51:58.941Z,5.65
2024-02-21T00:54:26.018Z,6.78
2024-02-21T00:56:54.742Z,6.22
2024-02-21T00:59:21.232Z,6.72
2024-02-21T01:01:47.687Z,6.47
2024-02-21T01:04:14.340Z,5.60
2024-02-21T01:06:43.900Z,6.47
2024-02-21T01:09:10.508Z,6.20
2024-02-21T01:11:37.167Z,6.20
2024-02-21T01:14:03.891Z,6.30
2024-02-21T01:16:30.412Z,6.35
2024-02-21T01:18:56.947Z,6.82
2024-02-21T01:21:23.385Z,6.93
2024-02-21T01:23:49.771Z,6.07
2024-02-21T01:26:16.604Z,6.40
2024-02-21T01:28:43.286Z,6.93
2024-02-21T01:31:09.731Z,7.38
2024-02-21T01:33:36.204Z,5.85
2024-02-21T01:36:09.198Z,7.35
2024-02-21T01:38:36.045Z,7.00
2024-02-21T01:41:02.757Z,8.52
2024-02-21T01:43:29.261Z,7.28
2024-02-21T01:45:58.889Z,7.47
2024-02-21T01:48:26.393Z,6.55
2024-02-21T01:50:55.771Z,6.97
2024-02-21T01:53:24.620Z,6.55
2024-02-21T01:55:51.215Z,7.78
2024-02-21T01:58:19.660Z,7.05
2024-02-21T02:00:48.931Z,6.60
2024-02-21T02:03:17.980Z,6.75
2024-02-21T02:05:48.748Z,7.00
2024-02-21T02:08:16.694Z,6.43
2024-02-21T02:10:43.857Z,6.40
2024-02-21T02:13:10.759Z,6.88
2024-02-21T02:15:45.205Z,7.47
2024-02-21T02:18:13.298Z,6.95
2024-02-21T02:20:40.821Z,6.95
2024-02-21T02:23:23.179Z,8.80
2024-02-21T02:25:52.371Z,6.70
2024-02-21T02:28:19.271Z,7.88
2024-02-21T02:30:46.063Z,7.88
2024-02-21T02:33:12.686Z,6.82
2024-02-21T02:35:39.198Z,7.63
2024-02-21T02:38:05.774Z,7.43
2024-02-21T02:40:34.205Z,7.63
2024-02-21T02:43:00.834Z,7.10
2024-02-21T02:45:27.769Z,9.52
2024-02-21T02:47:55.550Z,7.32
2024-02-21T02:50:22.096Z,8.05
2024-02-21T02:52:48.604Z,7.72
2024-02-21T02:55:15.482Z,8.32
2024-02-21T02:57:42.883Z,10.00
2024-02-21T03:00:11.848Z,8.15
2024-02-21T03:02:40.631Z,10.07
2024-02-21T03:05:21.739Z,7.82
2024-02-21T03:07:50.075Z,8.35
2024-02-21T03:10:20.015Z,8.90
2024-02-21T03:12:47.038Z,8.73
2024-02-21T03:15:15.001Z,8.75
2024-02-21T03:17:42.210Z,8.23
2024-02-21T03:20:12.248Z,7.20
2024-02-21T03:22:40.410Z,9.93
2024-02-21T03:25:08.065Z,8.80
2024-02-21T03:27:34.767Z,8.15
2024-02-21T03:30:01.326Z,8.75
2024-02-21T03:32:29.505Z,9.57
2024-02-21T03:34:56.121Z,9.27
2024-02-21T03:37:22.692Z,9.10
2024-02-21T03:39:49.315Z,9.15
2024-02-21T03:42:15.881Z,8.77
2024-02-21T03:44:42.335Z,8.75
2024-02-21T03:47:11.613Z,8.60
2024-02-21T03:49:38.847Z,8.93
2024-02-21T03:52:05.708Z,8.52
2024-02-21T03:54:32.137Z,9.13
2024-02-21T03:56:58.636Z,9.00
2024-02-21T03:59:25.921Z,8.50
2024-02-21T04:01:53.859Z,9.55
2024-02-21T04:04:21.645Z,9.35
2024-02-21T04:06:52.149Z,9.13
2024-02-21T04:09:19.111Z,8.73
2024-02-21T04:11:45.957Z,7.65
2024-02-21T04:14:12.960Z,10.35
2024-02-21T04:16:40.646Z,8.75
2024-02-21T04:19:07.630Z,9.27
2024-02-21T04:21:34.274Z,9.75
2024-02-21T04:24:01.066Z,9.07
2024-02-21T04:26:27.493Z,8.60
2024-02-21T04:28:54.095Z,8.95
2024-02-21T04:31:20.673Z,12.25
2024-02-21T04:33:47.436Z,10.65
2024-02-21T04:36:13.972Z,8.93
2024-02-21T04:38:41.782Z,10.20
2024-02-21T04:41:09.114Z,9.23
2024-02-21T04:43:35.848Z,9.90
2024-02-21T04:46:02.638Z,9.52
2024-02-21T04:48:29.085Z,9.45
2024-02-21T04:50:55.662Z,11.82
2024-02-21T04:53:22.238Z,9.30
2024-02-21T04:55:48.721Z,8.43
2024-02-21T04:58:15.161Z,10.52
2024-02-21T05:00:41.660Z,9.93
2024-02-21T05:03:08.293Z,9.00
2024-02-21T05:05:34.787Z,10.30
2024-02-21T05:08:01.402Z,9.57
2024-02-21T05:10:28.147Z,11.25
2024-02-21T05:12:54.564Z,9.90
2024-02-21T05:15:21.029Z,10.48
2024-02-21T05:17:47.559Z,10.68
2024-02-21T05:20:14.167Z,10.00
2024-02-21T05:22:40.666Z,9.05
2024-02-21T05:25:07.891Z,10.23
2024-02-21T05:27:34.453Z,11.77
2024-02-21T05:30:00.862Z,11.68
2024-02-21T05:32:27.825Z,10.95
2024-02-21T05:34:54.461Z,11.02
2024-02-21T05:37:21.095Z,11.45
2024-02-21T05:39:47.601Z,11.90
2024-02-21T05:42:14.019Z,10.95
2024-02-21T05:44:40.472Z,10.85
2024-02-21T05:47:11.054Z,10.13
2024-02-21T05:49:38.132Z,11.50
2024-02-21T05:52:07.066Z,9.98
2024-02-21T05:54:33.798Z,10.73
2024-02-21T05:57:00.429Z,10.60
2024-02-21T05:59:26.937Z,10.90
2024-02-21T06:01:59.529Z,10.95
2024-02-21T06:04:26.286Z,11.25
2024-02-21T06:06:52.841Z,11.10
2024-02-21T06:09:19.341Z,12.30
2024-02-21T06:11:47.517Z,9.75
2024-02-21T06:14:14.164Z,10.73
2024-02-21T06:16:40.703Z,12.60
2024-02-21T06:19:10.065Z,10.50
2024-02-21T06:21:37.678Z,12.13
2024-02-21T06:24:05.032Z,11.48
2024-02-21T06:26:31.494Z,12.68
2024-02-21T06:28:58.495Z,11.75
2024-02-21T06:31:25.149Z,12.93
2024-02-21T06:33:51.810Z,10.95
2024-02-21T06:36:18.289Z,12.52
2024-02-21T06:38:44.894Z,12.25
2024-02-21T06:41:19.768Z,12.73
2024-02-21T06:43:50.125Z,11.98
2024-02-21T06:46:30.364Z,12.40
2024-02-21T06:48:58.366Z,13.10
2024-02-21T06:51:26.076Z,12.55
2024-02-21T06:53:52.684Z,12.23
2024-02-21T06:56:19.243Z,11.90
2024-02-21T06:58:46.021Z,11.90
2024-02-21T07:01:12.932Z,13.32
2024-02-21T07:03:39.400Z,12.10
2024-02-21T07:06:06.094Z,12.32
2024-02-21T07:08:32.662Z,11.82
2024-02-21T07:10:59.238Z,13.85
2024-02-21T07:13:25.807Z,11.80
2024-02-21T07:15:52.216Z,12.45
2024-02-21T07:18:18.839Z,11.88
2024-02-21T07:20:45.339Z,12.32
2024-02-21T07:23:11.825Z,11.52
2024-02-21T07:25:38.437Z,11.90
2024-02-21T07:28:05.447Z,13.43
2024-02-21T07:30:32.099Z,11.77
2024-02-21T07:32:58.540Z,14.48
2024-02-21T07:35:25.124Z,13.23
2024-02-21T07:37:51.581Z,13.40
2024-02-21T07:40:18.557Z,13.10
2024-02-21T07:42:48.535Z,14.80
2024-02-21T07:45:19.359Z,12.05
2024-02-21T07:47:45.812Z,13.55
2024-02-21T07:50:12.405Z,12.93
2024-02-21T07:52:38.972Z,12.95
2024-02-21T07:55:05.795Z,12.98
2024-02-21T07:57:32.234Z,13.63
2024-02-21T07:59:58.782Z,11.52
2024-02-21T08:02:25.225Z,11.65
2024-02-21T08:04:51.710Z,12.30
2024-02-21T08:07:18.238Z,13.45
2024-02-21T08:09:44.720Z,13.55
2024-02-21T08:12:11.256Z,13.60
2024-02-21T08:14:37.804Z,12.60
2024-02-21T08:17:05.121Z,12.70
2024-02-21T08:19:32.098Z,14.02
2024-02-21T08:21:58.590Z,13.10
2024-02-21T08:24:25.023Z,12.20
2024-02-21T08:26:51.683Z,13.48
2024-02-21T08:29:18.132Z,12.95
2024-02-21T08:31:44.652Z,13.40
2024-02-21T08:34:11.206Z,12.95
2024-02-21T08:36:37.669Z,14.25
2024-02-21T08:39:04.826Z,13.82
2024-02-21T08:41:48.158Z,12.75
2024-02-21T08:44:24.681Z,13.43
2024-02-21T08:46:51.220Z,14.68
2024-02-21T08:49:17.779Z,13.57
2024-02-21T08:51:44.927Z,13.20
2024-02-21T08:54:11.424Z,13.85
2024-02-21T08:56:37.966Z,14.07
2024-02-21T08:59:05.298Z,14.40
2024-02-21T09:01:31.992Z,12.38
2024-02-21T09:03:59.305Z,14.10
2024-02-21T09:06:25.779Z,14.07
2024-02-21T09:08:52.242Z,13.02
2024-02-21T09:11:18.842Z,12.65
2024-02-21T09:13:45.472Z,13.20
2024-02-21T09:16:12.035Z,13.05
2024-02-21T09:18:38.471Z,13.10
2024-02-21T09:21:05.450Z,15.07
2024-02-21T09:23:32.841Z,13.25
2024-02-21T09:26:01.873Z,14.15
2024-02-21T09:28:28.675Z,13.55
2024-02-21T09:30:55.285Z,13.60
2024-02-21T09:33:30.192Z,14.02
2024-02-21T09:35:58.913Z,14.07
2024-02-21T09:38:25.396Z,14.98
2024-02-21T09:41:03.872Z,13.43
2024-02-21T09:43:30.563Z,13.52
2024-02-21T09:45:59.432Z,12.50
2024-02-21T09:49:00.520Z,13.15
2024-02-21T09:51:31.625Z,13.27
2024-02-21T09:54:07.326Z,13.68
2024-02-21T09:56:41.776Z,13.35
2024-02-21T09:59:08.924Z,12.93
2024-02-21T10:01:35.884Z,12.77
2024-02-21T10:04:04.258Z,11.45
2024-02-21T10:06:31.021Z,12.65
2024-02-21T10:08:57.527Z,11.30
2024-02-21T10:11:25.514Z,12.35
2024-02-21T10:13:52.495Z,12.30
2024-02-21T10:16:19.125Z,14.32
2024-02-21T10:18:45.629Z,10.45
2024-02-21T10:21:12.021Z,12.13
2024-02-21T10:23:45.805Z,10.43
2024-02-21T10:26:12.872Z,11.10
2024-02-21T10:28:46.954Z,10.80
2024-02-21T10:31:28.413Z,10.63
2024-02-21T10:33:59.853Z,10.98
2024-02-21T10:36:26.988Z,11.07
2024-02-21T10:38:55.892Z,11.60
2024-02-21T10:41:23.579Z,11.00
2024-02-21T10:43:56.119Z,11.13
2024-02-21T10:46:25.456Z,12.57
2024-02-21T10:49:08.503Z,12.07
2024-02-21T10:51:36.542Z,12.20
2024-02-21T10:54:25.845Z,11.13
2024-02-21T10:56:53.013Z,12.90
2024-02-21T10:59:20.623Z,12.48
2024-02-21T11:01:47.216Z,11.65
2024-02-21T11:04:14.368Z,11.82
2024-02-21T11:06:42.752Z,12.10
2024-02-21T11:09:11.254Z,12.27
2024-02-21T11:11:47.061Z,11.82
2024-02-21T11:14:20.987Z,12.05
2024-02-21T11:16:48.426Z,10.95
2024-02-21T11:19:23.678Z,11.80
2024-02-21T11:21:51.097Z,12.80
2024-02-21T11:24:34.212Z,11.30
2024-02-21T11:27:11.138Z,12.30
2024-02-21T11:29:43.485Z,12.10
2024-02-21T11:32:16.085Z,11.43
2024-02-21T11:34:53.554Z,11.18
2024-02-21T11:37:20.101Z,11.20
2024-02-21T11:39:46.803Z,11.27
2024-02-21T11:42:13.842Z,11.70
2024-02-21T11:44:40.981Z,11.60
2024-02-21T11:47:08.613Z,11.20
2024-02-21T11:49:47.303Z,11.20
2024-02-21T11:52:16.814Z,10.45
2024-02-21T11:54:44.017Z,11.40
2024-02-21T11:57:12.496Z,11.15
2024-02-21T11:59:41.425Z,10.98
2024-02-21T12:02:08.776Z,10.48
2024-02-21T12:04:35.492Z,10.75
2024-02-21T12:07:04.897Z,10.75
2024-02-21T12:09:31.689Z,10.57
2024-02-21T12:12:04.203Z,10.40
2024-02-21T12:14:31.740Z,9.75
2024-02-21T12:16:59.551Z,9.27
2024-02-21T12:19:26.489Z,11.30
2024-02-21T12:21:55.829Z,9.30
2024-02-21T12:24:27.075Z,9.32
2024-02-21T12:26:54.434Z,9.43
2024-02-21T12:29:22.055Z,8.98
2024-02-21T12:31:48.777Z,9.00
2024-02-21T12:34:17.682Z,9.45
2024-02-21T12:36:49.294Z,10.02
2024-02-21T12:39:16.198Z,8.97
2024-02-21T12:41:45.244Z,9.85
2024-02-21T12:44:12.476Z,10.10
2024-02-21T12:46:40.933Z,9.45
2024-02-21T12:49:10.231Z,9.63
2024-02-21T12:51:37.236Z,9.40
2024-02-21T12:54:06.660Z,9.77
2024-02-21T12:56:33.128Z,10.00
2024-02-21T12:58:59.577Z,9.18
2024-02-21T13:01:27.134Z,8.98
2024-02-21T13:03:55.018Z,9.38
2024-02-21T13:06:21.551Z,9.00
2024-02-21T13:08:48.087Z,8.77
2024-02-21T13:11:14.647Z,10.02
2024-02-21T13:13:41.216Z,9.30
2024-02-21T13:16:08.230Z,8.90
2024-02-21T13:18:36.205Z,10.23
2024-02-21T13:21:03.502Z,9.35
2024-02-21T13:23:29.933Z,9.68
2024-02-21T13:25:56.472Z,8.32
2024-02-21T13:28:22.974Z,9.02
2024-02-21T13:30:49.513Z,8.50
2024-02-21T13:33:16.099Z,8.32
2024-02-21T13:35:42.705Z,8.05
2024-02-21T13:38:10.998Z,7.90
2024-02-21T13:40:38.358Z,8.07
2024-02-21T13:43:04.790Z,7.57
2024-02-21T13:45:31.746Z,8.13
2024-02-21T13:48:00.014Z,8.25
2024-02-21T13:50:31.719Z,8.27
2024-02-21T13:55:27.247Z,7.88
2024-02-21T13:57:53.925Z,7.70
2024-02-21T14:00:21.188Z,7.63
2024-02-21T14:02:47.901Z,7.78
2024-02-21T14:05:15.744Z,7.35
2024-02-21T14:07:43.103Z,6.90
2024-02-21T14:10:10.714Z,6.30
2024-02-21T14:12:37.367Z,6.40
2024-02-21T14:15:03.879Z,6.00
2024-02-21T14:17:32.328Z,6.50
2024-02-21T14:19:58.769Z,6.35
2024-02-21T14:22:25.407Z,6.75
2024-02-21T14:24:51.954Z,9.50
2024-02-21T14:27:18.470Z,7.80
2024-02-21T14:29:44.984Z,6.90
2024-02-21T14:32:14.035Z,6.47
2024-02-21T14:34:40.583Z,6.32
2024-02-21T14:37:07.065Z,5.97
2024-02-21T14:39:35.913Z,6.57
2024-02-21T14:42:02.415Z,6.05
2024-02-21T14:44:28.803Z,6.90
2024-02-21T14:46:55.319Z,7.40
2024-02-21T14:49:22.276Z,6.20
2024-02-21T14:51:48.906Z,6.47
2024-02-21T14:54:15.489Z,7.60
2024-02-21T14:56:41.968Z,5.70
2024-02-21T14:59:14.951Z,5.68
2024-02-21T15:01:45.120Z,5.28
2024-02-21T15:04:11.696Z,5.10
2024-02-21T15:06:38.697Z,5.28
2024-02-21T15:09:07.042Z,4.70
2024-02-21T15:11:33.673Z,5.13
2024-02-21T15:14:00.286Z,5.10
2024-02-21T15:16:26.818Z,4.70
2024-02-21T15:18:53.384Z,4.90
2024-02-21T15:21:19.997Z,5.22
2024-02-21T15:23:46.464Z,5.30
2024-02-21T15:26:14.795Z,4.68
2024-02-21T15:28:41.340Z,4.90
2024-02-21T15:31:08.036Z,4.20
2024-02-21T15:33:36.980Z,5.53
2024-02-21T15:36:07.984Z,4.60
2024-02-21T15:38:34.472Z,4.97
2024-02-21T15:41:00.906Z,4.03
2024-02-21T15:43:28.462Z,4.82
2024-02-21T15:45:55.629Z,4.43
2024-02-21T15:48:26.047Z,4.13
2024-02-21T15:50:52.886Z,3.77
2024-02-21T15:53:19.390Z,4.05
2024-02-21T15:55:47.099Z,4.05
2024-02-21T15:58:14.331Z,3.83
2024-02-21T16:00:40.802Z,3.50
2024-02-21T16:03:07.587Z,4.20
2024-02-21T16:05:34.085Z,3.75
2024-02-21T16:08:01.501Z,4.00
2024-02-21T16:10:28.026Z,3.95
2024-02-21T16:12:54.438Z,4.30
2024-02-21T16:15:20.895Z,4.43
2024-02-21T16:17:48.340Z,3.42
2024-02-21T16:20:16.472Z,4.63
2024-02-21T16:22:43.281Z,4.30
2024-02-21T16:25:10.169Z,3.95
2024-02-21T16:27:37.050Z,4.70
2024-02-21T16:30:07.045Z,4.50
2024-02-21T16:32:35.867Z,5.13
2024-02-21T16:35:02.557Z,5.72
2024-02-21T16:37:29.233Z,6.18
2024-02-21T16:39:55.698Z,5.47
2024-02-21T16:42:22.148Z,6.05
2024-02-21T16:44:49.567Z,6.65
2024-02-21T16:47:17.831Z,5.38
2024-02-21T16:49:44.319Z,4.88
2024-02-21T16:52:10.838Z,5.47
2024-02-21T16:54:37.583Z,6.15
2024-02-21T16:57:04.197Z,6.47
2024-02-21T16:59:30.813Z,5.30
2024-02-21T17:01:57.301Z,4.32
2024-02-21T17:04:24.306Z,4.07
2024-02-21T17:06:51.373Z,4.93
2024-02-21T17:09:18.865Z,4.85
2024-02-21T17:11:45.949Z,4.65
2024-02-21T17:14:13.556Z,5.63
2024-02-21T17:16:40.095Z,4.40
2024-02-21T17:19:06.726Z,5.10
2024-02-21T17:21:33.588Z,6.60
2024-02-21T17:24:00.016Z,4.75
2024-02-21T17:26:27.333Z,5.05
2024-02-21T17:28:54.528Z,4.63
2024-02-21T17:31:21.240Z,4.70
2024-02-21T17:33:47.753Z,5.57
2024-02-21T17:36:14.547Z,5.20
2024-02-21T17:38:43.319Z,7.57
2024-02-21T17:41:09.934Z,6.07
2024-02-21T17:43:36.516Z,6.03
2024-02-21T17:46:03.958Z,5.35
2024-02-21T17:48:30.696Z,5.43
2024-02-21T17:50:57.379Z,5.50
2024-02-21T17:53:23.944Z,6.28
2024-02-21T17:55:50.530Z,5.35
2024-02-21T17:58:17.180Z,5.13
2024-02-21T18:00:46.306Z,5.18
2024-02-21T18:03:14.248Z,4.72
2024-02-21T18:05:40.842Z,4.40
2024-02-21T18:08:08.837Z,4.53
2024-02-21T18:10:35.400Z,8.25
2024-02-21T18:13:03.880Z,6.65
2024-02-21T18:15:30.366Z,5.78
2024-02-21T18:17:58.286Z,6.30
2024-02-21T18:20:25.661Z,5.90
2024-02-21T18:22:54.952Z,6.10
2024-02-21T18:25:23.066Z,5.95
2024-02-21T18:27:49.557Z,5.85
2024-02-21T18:30:16.316Z,7.72
2024-02-21T18:32:42.966Z,6.50
2024-02-21T18:35:09.722Z,6.10
2024-02-21T18:37:36.395Z,5.85
2024-02-21T18:40:10.748Z,5.95
2024-02-21T18:42:37.176Z,5.30
2024-02-21T18:45:03.971Z,6.47
2024-02-21T18:47:30.616Z,5.63
2024-02-21T18:49:57.158Z,5.75
2024-02-21T18:52:23.735Z,6.13
2024-02-21T18:54:50.371Z,5.32
2024-02-21T18:57:18.142Z,5.55
2024-02-21T18:59:45.333Z,5.65
2024-02-21T19:02:11.898Z,5.60
2024-02-21T19:04:38.947Z,5.88
2024-02-21T19:07:05.677Z,5.50
2024-02-21T19:09:32.084Z,5.88
2024-02-21T19:11:58.606Z,6.20
2024-02-21T19:14:25.076Z,6.53
2024-02-21T19:16:53.222Z,6.85
2024-02-21T19:19:19.691Z,4.30
2024-02-21T19:21:46.266Z,4.70
2024-02-21T19:24:12.774Z,4.57
2024-02-21T19:26:40.203Z,4.47
2024-02-21T19:29:07.373Z,4.90
2024-02-21T19:31:33.937Z,5.57
2024-02-21T19:34:00.562Z,5.38
2024-02-21T19:36:27.099Z,5.78
2024-02-21T19:38:53.675Z,5.78
2024-02-21T19:41:20.377Z,5.25
2024-02-21T19:43:47.696Z,6.30
2024-02-21T19:46:14.280Z,5.50
2024-02-21T19:48:41.894Z,5.00
2024-02-21T19:51:09.056Z,5.30
2024-02-21T19:53:36.234Z,5.45
2024-02-21T19:56:02.894Z,6.88
2024-02-21T19:58:29.640Z,5.40
2024-02-21T20:00:56.104Z,5.47
2024-02-21T20:03:26.572Z,5.22
2024-02-21T20:05:53.315Z,5.35
2024-02-21T20:08:20.012Z,6.07
2024-02-21T20:10:46.783Z,6.82
2024-02-21T20:13:14.319Z,5.05
2024-02-21T20:15:40.889Z,5.00
2024-02-21T20:18:07.451Z,5.03
2024-02-21T20:20:34.939Z,4.90
2024-02-21T20:23:02.517Z,5.32
2024-02-21T20:25:29.079Z,5.65
2024-02-21T20:27:56.013Z,5.38
2024-02-21T20:30:22.476Z,5.80
2024-02-21T20:32:52.230Z,5.20
2024-02-21T20:35:19.004Z,5.15
2024-02-21T20:37:47.554Z,5.53
2024-02-21T20:40:14.360Z,5.25
2024-02-21T20:42:41.753Z,5.57
2024-02-21T20:45:09.915Z,7.50
2024-02-21T20:47:37.300Z,6.53
2024-02-21T20:50:04.530Z,5.35
2024-02-21T20:52:31.310Z,6.25
2024-02-21T20:54:57.751Z,5.28
2024-02-21T20:57:24.280Z,6.05
2024-02-21T20:59:50.766Z,7.05
2024-02-21T21:02:17.664Z,5.65
2024-02-21T21:04:44.348Z,6.10
2024-02-21T21:07:11.496Z,5.80
2024-02-21T21:09:40.253Z,6.85
2024-02-21T21:12:07.515Z,8.13
2024-02-21T21:14:34.203Z,5.88
2024-02-21T21:17:04.536Z,6.38
2024-02-21T21:19:34.212Z,6.32
2024-02-21T21:22:01.891Z,6.05
2024-02-21T21:24:28.622Z,6.30
2024-02-21T21:26:55.165Z,6.60
2024-02-21T21:29:22.374Z,7.03
2024-02-21T21:31:49.161Z,5.57
2024-02-21T21:34:16.034Z,5.45
2024-02-21T21:36:42.728Z,5.90
2024-02-21T21:39:09.255Z,5.75
2024-02-21T21:41:36.213Z,6.60
2024-02-21T21:44:02.822Z,7.47
2024-02-21T21:46:29.605Z,15.27
2024-02-21T21:48:56.119Z,16.02
2024-02-21T21:51:24.782Z,13.98
2024-02-21T21:53:51.363Z,10.73
2024-02-21T21:56:17.935Z,9.30
2024-02-21T21:58:46.996Z,6.88
2024-02-21T22:01:14.864Z,6.53
2024-02-21T22:03:41.428Z,5.43
2024-02-21T22:06:08.213Z,7.00
2024-02-21T22:08:34.806Z,5.65
2024-02-21T22:11:01.282Z,5.32
2024-02-21T22:13:27.782Z,5.40
2024-02-21T22:15:54.215Z,5.70
2024-02-21T22:18:20.841Z,4.75
2024-02-21T22:20:47.270Z,6.22
2024-02-21T22:23:14.129Z,4.60
2024-02-21T22:25:41.795Z,4.95
2024-02-21T22:28:08.875Z,4.65
2024-02-21T22:30:35.962Z,5.10
2024-02-21T22:33:02.795Z,4.95
2024-02-21T22:35:29.336Z,5.38
2024-02-21T22:37:55.910Z,4.30
2024-02-21T22:40:22.519Z,6.20
2024-02-21T22:42:48.958Z,5.30
2024-02-21T22:45:17.702Z,5.32
2024-02-21T22:47:44.226Z,5.40
2024-02-21T22:50:10.868Z,4.05
2024-02-21T22:52:37.392Z,4.40
2024-02-21T22:55:04.285Z,4.55
2024-02-21T22:57:30.667Z,3.92
2024-02-21T22:59:57.093Z,4.55
2024-02-21T23:02:23.609Z,4.22
2024-02-21T23:04:50.162Z,4.55
2024-02-21T23:07:17.200Z,4.35
2024-02-21T23:09:43.626Z,4.85
2024-02-21T23:12:10.159Z,3.78
2024-02-21T23:14:36.973Z,4.30
2024-02-21T23:17:03.542Z,3.65
2024-02-21T23:19:30.130Z,4.10
2024-02-21T23:21:56.747Z,4.30
2024-02-21T23:24:23.151Z,4.07
2024-02-21T23:26:49.539Z,4.38
2024-02-21T23:29:16.014Z,3.85
2024-02-21T23:31:42.994Z,3.97
2024-02-21T23:34:10.416Z,3.92
2024-02-21T23:36:37.025Z,3.92
2024-02-21T23:39:03.690Z,3.92
2024-02-21T23:41:30.132Z,3.80
2024-02-21T23:44:00.120Z,3.75
2024-02-21T23:46:27.412Z,3.00
2024-02-21T23:48:59.320Z,3.95
2024-02-21T23:51:25.884Z,3.35
2024-02-21T23:53:52.296Z,3.92
2024-02-21T23:56:18.774Z,2.58
2024-02-21T23:58:45.303Z,3.28
